createdAt,value
2017-02-21T00:00:27.426Z,0
2017-02-21T00:01:37.828Z,0
2017-02-21T00:02:48.229Z,0
2017-02-21T00:03:59.014Z,0
2017-02-21T00:05:09.848Z,0
2017-02-21T00:06:20.662Z,0
2017-02-21T00:07:31.441Z,0
2017-02-21T00:08:42.242Z,0
2017-02-21T00:09:52.651Z,0
2017-02-21T00:11:03.458Z,0
2017-02-21T00:12:13.874Z,0
2017-02-21T00:13:24.258Z,0
2017-02-21T00:14:34.661Z,0
2017-02-21T00:15:45.523Z,0
2017-02-21T00:16:56.320Z,0
2017-02-21T00:18:07.112Z,0
2017-02-21T00:19:17.485Z,0
2017-02-21T00:20:27.878Z,0
2017-02-21T00:21:38.641Z,0
2017-02-21T00:22:49.441Z,0
2017-02-21T00:24:00.217Z,0
2017-02-21T00:25:10.998Z,0
2017-02-21T00:26:21.800Z,0
2017-02-21T00:27:31.801Z,0
2017-02-21T00:28:42.184Z,0
2017-02-21T00:29:52.572Z,0
2017-02-21T00:31:03.340Z,0
2017-02-21T00:32:14.138Z,0
2017-02-21T00:33:24.913Z,0
2017-02-21T00:34:35.713Z,0
2017-02-21T00:35:46.517Z,0
2017-02-21T00:36:57.330Z,0
2017-02-21T00:38:07.304Z,0
2017-02-21T00:39:16.955Z,0
2017-02-21T00:40:27.776Z,0
2017-02-21T00:41:38.549Z,0
2017-02-21T00:42:48.946Z,0
2017-02-21T00:43:59.521Z,0
2017-02-21T00:45:09.893Z,0
2017-02-21T00:46:20.668Z,0
2017-02-21T00:47:31.434Z,0
2017-02-21T00:48:42.233Z,0
2017-02-21T00:49:52.993Z,0
2017-02-21T00:51:03.784Z,0
2017-02-21T00:52:14.571Z,0
2017-02-21T00:53:25.351Z,0
2017-02-21T00:54:36.136Z,0
2017-02-21T00:55:46.533Z,0
2017-02-21T00:56:56.935Z,0
2017-02-21T00:58:07.713Z,0
2017-02-21T00:59:18.513Z,0
2017-02-21T01:00:28.901Z,0
2017-02-21T01:01:39.286Z,0
2017-02-21T01:02:50.076Z,0
2017-02-21T01:04:00.877Z,0
2017-02-21T01:05:11.658Z,0
2017-02-21T01:06:22.456Z,0
2017-02-21T01:07:33.230Z,0
2017-02-21T01:08:43.220Z,0
2017-02-21T01:09:53.610Z,0
2017-02-21T01:11:04.383Z,0
2017-02-21T01:12:15.199Z,0
2017-02-21T01:13:25.979Z,0
2017-02-21T01:14:36.851Z,0
2017-02-21T01:15:46.837Z,0
2017-02-21T01:16:57.228Z,0
2017-02-21T01:18:08.025Z,0
2017-02-21T01:19:18.422Z,0
2017-02-21T01:20:29.215Z,0
2017-02-21T01:21:40.006Z,0
2017-02-21T01:22:50.413Z,0
2017-02-21T01:24:01.190Z,0
2017-02-21T01:25:11.593Z,0
2017-02-21T01:26:21.973Z,0
2017-02-21T01:27:32.365Z,0
2017-02-21T01:28:42.756Z,0
2017-02-21T01:29:52.807Z,0
2017-02-21T01:31:03.622Z,0
2017-02-21T01:32:13.225Z,0
2017-02-21T01:33:24.002Z,0
2017-02-21T01:34:34.416Z,0
2017-02-21T01:35:44.397Z,0
2017-02-21T01:36:55.177Z,0
2017-02-21T01:38:05.564Z,0
2017-02-21T01:39:16.345Z,0
2017-02-21T01:40:26.756Z,0
2017-02-21T01:41:37.135Z,0
2017-02-21T01:42:47.907Z,0
2017-02-21T01:43:57.913Z,0
2017-02-21T01:45:07.916Z,0
2017-02-21T01:46:17.922Z,0
2017-02-21T01:47:28.687Z,0
2017-02-21T01:48:39.105Z,0
2017-02-21T01:49:49.885Z,0
2017-02-21T01:51:00.316Z,0
2017-02-21T01:52:10.691Z,0
2017-02-21T01:53:20.696Z,0
2017-02-21T01:54:31.493Z,0
2017-02-21T01:55:42.279Z,0
2017-02-21T01:56:53.079Z,0
2017-02-21T01:58:03.868Z,0
2017-02-21T01:59:14.641Z,0
2017-02-21T02:00:24.652Z,0
2017-02-21T02:01:34.648Z,0
2017-02-21T02:02:45.431Z,0
2017-02-21T02:03:56.207Z,0
2017-02-21T02:05:07.014Z,0
2017-02-21T02:06:17.812Z,0
2017-02-21T02:07:28.594Z,0
2017-02-21T02:08:38.975Z,0
2017-02-21T02:09:49.366Z,0
2017-02-21T02:10:59.751Z,0
2017-02-21T02:12:10.145Z,0
2017-02-21T02:13:20.542Z,0
2017-02-21T02:14:30.922Z,0
2017-02-21T02:15:41.345Z,0
2017-02-21T02:16:52.182Z,0
2017-02-21T02:18:02.964Z,0
2017-02-21T02:19:12.961Z,0
2017-02-21T02:20:23.358Z,0
2017-02-21T02:21:34.129Z,0
2017-02-21T02:22:44.510Z,0
2017-02-21T02:23:54.102Z,0
2017-02-21T02:25:04.093Z,0
2017-02-21T02:26:14.872Z,0
2017-02-21T02:27:25.658Z,0
2017-02-21T02:28:36.449Z,0
2017-02-21T02:29:46.437Z,0
2017-02-21T02:30:56.432Z,0
2017-02-21T02:32:07.231Z,0
2017-02-21T02:33:18.006Z,0
2017-02-21T02:34:28.802Z,0
2017-02-21T02:35:38.800Z,0
2017-02-21T02:36:49.577Z,0
2017-02-21T02:37:59.962Z,0
2017-02-21T02:39:10.375Z,0
2017-02-21T02:40:20.352Z,0
2017-02-21T02:41:31.128Z,0
2017-02-21T02:42:41.535Z,0
2017-02-21T02:43:52.301Z,0
2017-02-21T02:45:02.708Z,0
2017-02-21T02:46:13.524Z,0
2017-02-21T02:47:23.890Z,0
2017-02-21T02:48:33.902Z,0
2017-02-21T02:49:44.679Z,0
2017-02-21T02:50:55.501Z,0
2017-02-21T02:52:05.890Z,0
2017-02-21T02:53:16.271Z,0
2017-02-21T02:54:26.663Z,0
2017-02-21T02:55:37.042Z,0
2017-02-21T02:56:47.019Z,0
2017-02-21T02:57:57.792Z,0
2017-02-21T02:59:08.597Z,0
2017-02-21T03:00:19.410Z,0
2017-02-21T03:32:46.439Z,0
2017-02-21T03:33:56.811Z,0
2017-02-21T03:35:07.575Z,0
2017-02-21T03:36:17.161Z,0
2017-02-21T03:37:27.552Z,0
2017-02-21T03:38:37.551Z,0
2017-02-21T03:39:47.962Z,0
2017-02-21T03:40:58.764Z,0
2017-02-21T03:42:09.538Z,0
2017-02-21T03:43:19.937Z,0
2017-02-21T03:44:30.324Z,0
2017-02-21T03:45:41.158Z,0
2017-02-21T03:46:51.557Z,0
2017-02-21T03:48:01.158Z,0
2017-02-21T03:49:11.941Z,0
2017-02-21T03:50:22.315Z,0
2017-02-21T03:51:33.087Z,0
2017-02-21T03:52:43.488Z,0
2017-02-21T03:53:54.263Z,0
2017-02-21T03:55:04.647Z,0
2017-02-21T03:56:15.448Z,0
2017-02-21T03:57:25.854Z,0
2017-02-21T03:58:36.641Z,0
2017-02-21T03:59:46.660Z,0
2017-02-21T04:00:57.679Z,0
2017-02-21T04:02:08.469Z,0
2017-02-21T04:03:18.448Z,0
2017-02-21T04:04:29.252Z,0
2017-02-21T04:05:40.045Z,0
2017-02-21T04:06:50.458Z,0
2017-02-21T04:08:01.255Z,0
2017-02-21T04:09:12.033Z,0
2017-02-21T04:10:22.403Z,0
2017-02-21T04:11:33.167Z,0
2017-02-21T04:12:43.944Z,0
2017-02-21T04:13:54.343Z,0
2017-02-21T04:15:05.198Z,0
2017-02-21T04:16:15.610Z,0
2017-02-21T04:17:25.977Z,0
2017-02-21T04:18:36.757Z,0
2017-02-21T04:19:46.388Z,0
2017-02-21T04:20:57.173Z,0
2017-02-21T04:22:07.575Z,0
2017-02-21T04:23:17.609Z,0
2017-02-21T04:24:28.435Z,0
2017-02-21T04:25:38.810Z,0
2017-02-21T04:26:49.594Z,0
2017-02-21T04:28:00.378Z,0
2017-02-21T04:29:11.164Z,0
2017-02-21T04:30:21.958Z,0
2017-02-21T04:31:32.744Z,0
2017-02-21T04:32:43.525Z,0
2017-02-21T04:33:53.921Z,0
2017-02-21T04:35:04.724Z,0
2017-02-21T04:36:15.137Z,0
2017-02-21T04:37:25.927Z,0
2017-02-21T04:38:35.811Z,0
2017-02-21T04:39:46.608Z,0
2017-02-21T04:40:57.398Z,0
2017-02-21T04:42:08.184Z,0
2017-02-21T04:43:18.581Z,0
2017-02-21T04:44:29.393Z,0
2017-02-21T04:45:39.775Z,0
2017-02-21T04:46:50.620Z,0
2017-02-21T04:48:01.036Z,0
2017-02-21T04:49:11.440Z,0
2017-02-21T04:50:21.422Z,0
2017-02-21T04:51:31.858Z,0
2017-02-21T04:52:41.875Z,0
2017-02-21T04:53:52.266Z,0
2017-02-21T04:55:02.970Z,0
2017-02-21T04:56:13.351Z,0
2017-02-21T04:57:23.731Z,0
2017-02-21T04:58:34.525Z,0
2017-02-21T04:59:44.901Z,0
2017-02-21T05:00:55.666Z,0
2017-02-21T05:02:05.269Z,0
2017-02-21T05:03:16.090Z,0
2017-02-21T05:04:26.496Z,0
2017-02-21T05:05:36.864Z,0
2017-02-21T05:06:47.267Z,0
2017-02-21T05:07:58.048Z,0
2017-02-21T05:09:08.045Z,0
2017-02-21T05:10:18.440Z,0
2017-02-21T05:11:28.866Z,0
2017-02-21T05:12:39.257Z,0
2017-02-21T05:13:49.256Z,0
2017-02-21T05:14:59.258Z,0
2017-02-21T05:16:10.039Z,0
2017-02-21T05:17:20.442Z,0
2017-02-21T05:18:31.223Z,0
2017-02-21T05:19:41.623Z,0
2017-02-21T05:20:52.058Z,0
2017-02-21T05:22:02.449Z,0
2017-02-21T05:23:12.062Z,0
2017-02-21T05:24:22.831Z,0
2017-02-21T05:25:33.212Z,0
2017-02-21T05:26:43.595Z,0
2017-02-21T05:27:53.988Z,0
2017-02-21T05:29:04.759Z,0
2017-02-21T05:30:14.355Z,0
2017-02-21T05:31:25.137Z,0
2017-02-21T05:32:34.736Z,0
2017-02-21T05:33:44.755Z,0
2017-02-21T05:34:55.147Z,0
2017-02-21T05:36:05.941Z,0
2017-02-21T05:37:16.710Z,0
2017-02-21T05:38:26.703Z,0
2017-02-21T05:39:36.721Z,0
2017-02-21T05:40:47.109Z,0
2017-02-21T05:41:57.102Z,0
2017-02-21T05:43:07.910Z,0
2017-02-21T05:44:18.721Z,0
2017-02-21T05:45:29.511Z,0
2017-02-21T05:46:39.159Z,0
2017-02-21T05:47:49.136Z,0
2017-02-21T05:48:59.514Z,0
2017-02-21T05:50:09.369Z,0
2017-02-21T05:51:20.137Z,0
2017-02-21T05:52:30.917Z,0
2017-02-21T05:53:41.743Z,0
2017-02-21T05:54:52.112Z,0
2017-02-21T05:56:02.519Z,0
2017-02-21T05:57:12.931Z,0
2017-02-21T05:58:23.703Z,0
2017-02-21T05:59:34.094Z,0
2017-02-21T06:00:44.887Z,0
2017-02-21T06:01:54.877Z,0
2017-02-21T06:03:05.679Z,5
2017-02-21T06:04:16.470Z,5
2017-02-21T06:05:27.245Z,5
2017-02-21T06:06:37.635Z,5
2017-02-21T06:07:47.652Z,5
2017-02-21T06:08:58.071Z,5
2017-02-21T06:10:08.072Z,5
2017-02-21T06:11:18.860Z,5
2017-02-21T06:12:29.253Z,5
2017-02-21T06:13:39.258Z,5
2017-02-21T06:14:50.046Z,5
2017-02-21T06:16:00.063Z,5
2017-02-21T06:17:10.444Z,5
2017-02-21T06:18:21.233Z,5
2017-02-21T06:19:31.629Z,5
2017-02-21T06:20:42.020Z,5
2017-02-21T06:21:52.496Z,5
2017-02-21T06:23:03.297Z,5
2017-02-21T06:24:14.108Z,5
2017-02-21T06:25:24.511Z,5
2017-02-21T06:26:34.514Z,5
2017-02-21T06:27:44.902Z,5
2017-02-21T06:28:55.706Z,5
2017-02-21T06:30:06.102Z,5
2017-02-21T06:31:16.102Z,10
2017-02-21T06:32:26.500Z,10
2017-02-21T06:33:37.275Z,10
2017-02-21T06:34:47.678Z,15
2017-02-21T06:35:58.069Z,15
2017-02-21T06:37:08.450Z,15
2017-02-21T06:38:18.450Z,15
2017-02-21T06:39:28.860Z,15
2017-02-21T06:40:39.645Z,15
2017-02-21T06:41:49.655Z,15
2017-02-21T06:43:00.445Z,15
2017-02-21T06:44:11.226Z,15
2017-02-21T06:45:21.227Z,15
2017-02-21T06:46:31.994Z,15
2017-02-21T06:47:42.792Z,15
2017-02-21T06:48:53.597Z,20
2017-02-21T06:50:04.009Z,20
2017-02-21T06:51:14.790Z,25
2017-02-21T06:52:25.585Z,25
2017-02-21T06:53:35.998Z,25
2017-02-21T06:54:46.390Z,25
2017-02-21T06:55:57.177Z,25
2017-02-21T06:57:07.972Z,25
2017-02-21T06:58:18.350Z,25
2017-02-21T06:59:28.733Z,25
2017-02-21T07:00:39.528Z,30
2017-02-21T07:01:49.901Z,35
2017-02-21T07:03:00.685Z,35
2017-02-21T07:04:11.465Z,40
2017-02-21T07:05:21.449Z,40
2017-02-21T07:06:31.843Z,40
2017-02-21T07:07:42.694Z,40
2017-02-21T07:08:53.460Z,45
2017-02-21T07:10:03.859Z,45
2017-02-21T07:11:14.653Z,45
2017-02-21T07:12:25.047Z,45
2017-02-21T07:13:35.842Z,50
2017-02-21T07:14:46.519Z,45
2017-02-21T07:15:57.331Z,45
2017-02-21T07:17:07.711Z,45
2017-02-21T07:18:17.707Z,45
2017-02-21T07:19:28.510Z,45
2017-02-21T07:20:39.274Z,45
2017-02-21T07:21:49.278Z,45
2017-02-21T07:22:59.688Z,50
2017-02-21T07:24:10.477Z,55
2017-02-21T07:25:20.460Z,50
2017-02-21T07:26:30.858Z,50
2017-02-21T07:27:41.644Z,50
2017-02-21T07:28:52.029Z,55
2017-02-21T07:30:02.027Z,60
2017-02-21T07:31:12.837Z,60
2017-02-21T07:32:23.615Z,50
2017-02-21T07:33:33.992Z,45
2017-02-21T07:34:44.428Z,45
2017-02-21T07:35:55.194Z,45
2017-02-21T07:37:05.591Z,45
2017-02-21T07:38:16.378Z,50
2017-02-21T07:39:27.163Z,50
2017-02-21T07:40:37.572Z,50
2017-02-21T07:41:47.958Z,50
2017-02-21T07:42:58.752Z,50
2017-02-21T07:44:08.770Z,50
2017-02-21T07:45:19.569Z,50
2017-02-21T07:46:30.383Z,50
2017-02-21T07:47:41.160Z,55
2017-02-21T07:48:51.938Z,55
2017-02-21T07:50:02.341Z,65
2017-02-21T07:51:13.120Z,70
2017-02-21T07:52:23.894Z,80
2017-02-21T07:53:34.682Z,85
2017-02-21T07:54:45.472Z,80
2017-02-21T07:55:55.135Z,80
2017-02-21T07:57:05.526Z,70
2017-02-21T07:58:16.322Z,65
2017-02-21T07:59:25.913Z,60
2017-02-21T08:00:35.924Z,60
2017-02-21T08:01:45.983Z,55
2017-02-21T08:02:56.796Z,55
2017-02-21T08:04:07.196Z,60
2017-02-21T08:05:17.979Z,60
2017-02-21T08:06:28.370Z,60
2017-02-21T08:07:38.753Z,50
2017-02-21T08:08:47.954Z,50
2017-02-21T08:09:58.498Z,50
2017-02-21T08:11:09.276Z,50
2017-02-21T08:12:19.684Z,45
2017-02-21T08:13:29.690Z,50
2017-02-21T08:14:39.708Z,50
2017-02-21T08:15:50.513Z,45
2017-02-21T08:17:00.899Z,45
2017-02-21T08:18:11.698Z,40
2017-02-21T08:19:22.516Z,40
2017-02-21T08:20:32.536Z,40
2017-02-21T08:21:42.917Z,40
2017-02-21T08:22:52.924Z,40
2017-02-21T08:24:03.738Z,40
2017-02-21T08:25:14.576Z,45
2017-02-21T08:26:25.378Z,50
2017-02-21T08:27:36.165Z,50
2017-02-21T08:28:46.565Z,50
2017-02-21T08:29:56.963Z,50
2017-02-21T08:31:06.969Z,50
2017-02-21T08:32:17.752Z,45
2017-02-21T08:33:28.534Z,45
2017-02-21T08:34:38.945Z,50
2017-02-21T08:35:48.945Z,55
2017-02-21T08:36:59.745Z,60
2017-02-21T08:38:10.144Z,65
2017-02-21T08:39:20.936Z,55
2017-02-21T08:40:30.930Z,55
2017-02-21T08:41:41.389Z,60
2017-02-21T08:42:52.157Z,70
2017-02-21T08:44:02.610Z,70
2017-02-21T08:45:12.224Z,65
2017-02-21T08:46:23.046Z,60
2017-02-21T08:47:33.464Z,65
2017-02-21T08:48:43.484Z,65
2017-02-21T08:49:53.482Z,60
2017-02-21T08:51:03.083Z,60
2017-02-21T08:52:13.095Z,55
2017-02-21T08:53:23.882Z,60
2017-02-21T08:54:34.283Z,60
2017-02-21T08:55:45.110Z,55
2017-02-21T08:56:55.501Z,55
2017-02-21T08:58:06.284Z,50
2017-02-21T08:59:17.074Z,55
2017-02-21T09:00:27.074Z,60
2017-02-21T09:01:37.472Z,60
2017-02-21T09:02:48.286Z,60
2017-02-21T09:03:58.312Z,55
2017-02-21T09:05:09.143Z,60
2017-02-21T09:06:19.566Z,60
2017-02-21T09:07:30.358Z,75
2017-02-21T09:08:40.780Z,80
2017-02-21T09:09:51.575Z,70
2017-02-21T09:11:01.971Z,70
2017-02-21T09:12:12.392Z,60
2017-02-21T09:13:22.415Z,60
2017-02-21T09:14:32.793Z,60
2017-02-21T09:15:43.194Z,60
2017-02-21T09:16:53.577Z,65
2017-02-21T09:18:03.971Z,65
2017-02-21T09:19:14.403Z,65
2017-02-21T09:20:25.186Z,60
2017-02-21T09:21:35.582Z,55
2017-02-21T09:22:46.376Z,50
2017-02-21T09:23:57.150Z,50
2017-02-21T09:25:07.143Z,55
2017-02-21T09:26:17.524Z,60
2017-02-21T09:27:28.186Z,55
2017-02-21T09:28:38.562Z,60
2017-02-21T09:29:48.608Z,70
2017-02-21T09:30:59.020Z,75
2017-02-21T09:32:09.408Z,75
2017-02-21T09:33:20.189Z,75
2017-02-21T09:34:30.999Z,75
2017-02-21T09:35:41.005Z,80
2017-02-21T09:36:51.797Z,80
2017-02-21T09:38:02.586Z,90
2017-02-21T09:39:12.624Z,95
2017-02-21T09:40:23.404Z,95
2017-02-21T09:41:34.211Z,95
2017-02-21T09:42:44.616Z,105
2017-02-21T09:43:55.020Z,110
2017-02-21T09:45:05.020Z,100
2017-02-21T09:46:15.031Z,100
2017-02-21T09:47:25.857Z,95
2017-02-21T09:48:35.852Z,95
2017-02-21T09:49:46.247Z,95
2017-02-21T09:50:56.650Z,95
2017-02-21T09:52:06.647Z,95
2017-02-21T09:53:17.437Z,90
2017-02-21T09:54:27.424Z,95
2017-02-21T09:55:37.825Z,95
2017-02-21T09:56:48.224Z,95
2017-02-21T09:57:58.994Z,95
2017-02-21T09:59:09.376Z,100
2017-02-21T10:00:20.208Z,105
2017-02-21T10:01:30.595Z,110
2017-02-21T10:02:41.395Z,105
2017-02-21T10:03:51.415Z,95
2017-02-21T10:05:01.822Z,90
2017-02-21T10:06:12.599Z,95
2017-02-21T10:07:23.005Z,95
2017-02-21T10:08:33.410Z,95
2017-02-21T10:09:43.814Z,95
2017-02-21T10:10:54.241Z,95
2017-02-21T10:12:04.671Z,95
2017-02-21T10:13:15.486Z,105
2017-02-21T10:14:26.280Z,105
2017-02-21T10:15:37.059Z,115
2017-02-21T10:16:47.848Z,120
2017-02-21T10:17:58.253Z,120
2017-02-21T10:19:08.267Z,125
2017-02-21T10:20:18.283Z,135
2017-02-21T10:21:28.299Z,145
2017-02-21T10:22:38.714Z,165
2017-02-21T10:23:49.134Z,170
2017-02-21T10:24:59.523Z,180
2017-02-21T10:26:10.326Z,190
2017-02-21T10:27:21.137Z,195
2017-02-21T10:28:31.963Z,190
2017-02-21T10:29:42.345Z,185
2017-02-21T10:30:52.783Z,170
2017-02-21T10:32:03.628Z,165
2017-02-21T10:33:14.013Z,165
2017-02-21T10:34:24.423Z,170
2017-02-21T10:35:34.826Z,185
2017-02-21T10:36:45.208Z,185
2017-02-21T10:37:56.028Z,190
2017-02-21T10:39:06.835Z,195
2017-02-21T10:40:17.243Z,195
2017-02-21T10:41:28.020Z,185
2017-02-21T10:42:38.036Z,170
2017-02-21T10:43:48.464Z,160
2017-02-21T10:44:58.865Z,150
2017-02-21T10:46:09.302Z,145
2017-02-21T10:47:19.306Z,140
2017-02-21T10:48:30.090Z,140
2017-02-21T10:49:40.503Z,130
2017-02-21T10:50:50.889Z,120
2017-02-21T10:52:01.288Z,115
2017-02-21T10:53:11.700Z,110
2017-02-21T10:54:22.505Z,110
2017-02-21T10:55:32.523Z,110
2017-02-21T10:56:43.409Z,115
2017-02-21T10:57:54.200Z,110
2017-02-21T10:59:04.211Z,115
2017-02-21T11:00:14.601Z,115
2017-02-21T11:01:25.250Z,115
2017-02-21T11:02:36.044Z,120
2017-02-21T11:03:46.443Z,115
2017-02-21T11:04:56.824Z,110
2017-02-21T11:06:07.643Z,105
2017-02-21T11:07:18.467Z,105
2017-02-21T11:08:29.272Z,105
2017-02-21T11:09:40.098Z,95
2017-02-21T11:10:50.505Z,100
2017-02-21T11:12:00.874Z,100
2017-02-21T11:13:10.104Z,105
2017-02-21T11:14:20.108Z,120
2017-02-21T11:15:30.498Z,135
2017-02-21T11:16:40.870Z,140
2017-02-21T11:17:51.279Z,135
2017-02-21T11:19:01.671Z,140
2017-02-21T11:20:12.072Z,145
2017-02-21T11:21:22.875Z,140
2017-02-21T11:22:33.295Z,135
2017-02-21T11:23:44.080Z,135
2017-02-21T11:24:54.890Z,135
2017-02-21T11:26:05.677Z,135
2017-02-21T11:27:16.482Z,130
2017-02-21T11:28:26.866Z,130
2017-02-21T11:29:37.697Z,135
2017-02-21T11:30:48.107Z,140
2017-02-21T11:31:58.494Z,140
2017-02-21T11:33:08.747Z,140
2017-02-21T11:34:18.744Z,140
2017-02-21T11:35:29.136Z,140
2017-02-21T11:36:39.518Z,140
2017-02-21T11:37:49.930Z,135
2017-02-21T11:39:00.727Z,125
2017-02-21T11:40:11.536Z,120
2017-02-21T11:41:21.531Z,110
2017-02-21T11:42:31.535Z,105
2017-02-21T11:43:41.923Z,100
2017-02-21T11:44:52.316Z,105
2017-02-21T11:46:03.115Z,110
2017-02-21T11:47:13.922Z,105
2017-02-21T11:48:24.311Z,100
2017-02-21T11:49:35.097Z,95
2017-02-21T11:50:45.894Z,95
2017-02-21T11:51:56.292Z,95
2017-02-21T11:53:06.697Z,95
2017-02-21T11:54:17.079Z,95
2017-02-21T11:55:27.869Z,95
2017-02-21T11:56:38.679Z,95
2017-02-21T11:57:49.070Z,95
2017-02-21T11:58:59.476Z,95
2017-02-21T12:00:09.877Z,90
2017-02-21T12:01:19.886Z,80
2017-02-21T12:02:30.262Z,70
2017-02-21T12:03:41.322Z,65
2017-02-21T12:04:52.102Z,65
2017-02-21T12:06:02.497Z,65
2017-02-21T12:07:13.266Z,65
2017-02-21T12:08:23.660Z,65
2017-02-21T12:09:34.449Z,65
2017-02-21T12:10:44.869Z,65
2017-02-21T12:11:55.667Z,65
2017-02-21T12:13:06.453Z,65
2017-02-21T12:14:16.845Z,65
2017-02-21T12:15:27.269Z,65
2017-02-21T12:16:37.655Z,65
2017-02-21T12:17:48.045Z,65
2017-02-21T12:18:57.663Z,65
2017-02-21T12:20:08.203Z,65
2017-02-21T12:21:18.587Z,60
2017-02-21T12:22:29.369Z,60
2017-02-21T12:23:40.169Z,60
2017-02-21T12:24:50.580Z,65
2017-02-21T12:26:01.378Z,70
2017-02-21T12:27:12.262Z,75
2017-02-21T12:28:22.702Z,80
2017-02-21T12:29:33.103Z,80
2017-02-21T12:30:43.137Z,70
2017-02-21T12:31:53.552Z,60
2017-02-21T12:33:03.934Z,55
2017-02-21T12:34:14.723Z,50
2017-02-21T12:35:25.549Z,50
2017-02-21T12:36:36.332Z,50
2017-02-21T12:37:47.127Z,55
2017-02-21T12:38:57.941Z,55
2017-02-21T12:40:08.719Z,55
2017-02-21T12:41:19.500Z,55
2017-02-21T12:42:30.305Z,60
2017-02-21T12:43:41.093Z,65
2017-02-21T12:44:51.091Z,70
2017-02-21T12:46:01.487Z,70
2017-02-21T12:47:12.299Z,70
2017-02-21T12:48:22.684Z,70
2017-02-21T12:49:33.124Z,80
2017-02-21T12:50:43.854Z,80
2017-02-21T12:51:54.679Z,80
2017-02-21T12:53:05.468Z,80
2017-02-21T12:54:15.485Z,80
2017-02-21T12:55:25.887Z,70
2017-02-21T12:56:36.269Z,65
2017-02-21T12:57:47.075Z,60
2017-02-21T12:58:56.696Z,60
2017-02-21T13:00:07.517Z,55
2017-02-21T13:01:17.926Z,60
2017-02-21T13:02:27.948Z,60
2017-02-21T13:03:38.781Z,55
2017-02-21T13:04:49.195Z,55
2017-02-21T13:05:59.186Z,50
2017-02-21T13:07:09.589Z,50
2017-02-21T13:08:19.595Z,50
2017-02-21T13:09:30.396Z,50
2017-02-21T13:10:41.205Z,55
2017-02-21T13:11:51.636Z,65
2017-02-21T13:13:02.025Z,70
2017-02-21T13:14:12.813Z,65
2017-02-21T13:15:23.603Z,65
2017-02-21T13:16:34.448Z,65
2017-02-21T13:17:44.849Z,70
2017-02-21T13:18:54.842Z,70
2017-02-21T13:20:05.245Z,80
2017-02-21T13:21:15.682Z,90
2017-02-21T13:22:26.466Z,95
2017-02-21T13:23:36.901Z,105
2017-02-21T13:24:47.715Z,105
2017-02-21T13:25:57.710Z,100
2017-02-21T13:27:07.704Z,95
2017-02-21T13:28:18.113Z,90
2017-02-21T13:29:27.750Z,90
2017-02-21T13:30:38.548Z,90
2017-02-21T13:31:48.531Z,90
2017-02-21T13:32:59.367Z,95
2017-02-21T13:34:09.753Z,90
2017-02-21T13:35:20.535Z,95
2017-02-21T13:36:30.526Z,100
2017-02-21T13:37:40.542Z,105
2017-02-21T13:38:50.560Z,115
2017-02-21T13:40:00.585Z,120
2017-02-21T13:41:10.566Z,120
2017-02-21T13:42:20.980Z,115
2017-02-21T13:43:31.794Z,110
2017-02-21T13:44:42.216Z,115
2017-02-21T13:45:52.989Z,120
2017-02-21T13:47:03.396Z,125
2017-02-21T13:48:13.408Z,130
2017-02-21T13:49:23.813Z,130
2017-02-21T13:50:34.613Z,135
2017-02-21T13:51:45.423Z,140
2017-02-21T13:52:55.824Z,145
2017-02-21T13:54:06.643Z,140
2017-02-21T13:55:17.418Z,140
2017-02-21T13:56:27.813Z,145
2017-02-21T13:57:38.617Z,150
2017-02-21T13:58:49.027Z,150
2017-02-21T13:59:59.424Z,145
2017-02-21T14:01:10.258Z,145
2017-02-21T14:02:20.276Z,150
2017-02-21T14:03:30.670Z,150
2017-02-21T14:04:41.079Z,150
2017-02-21T14:05:51.474Z,165
2017-02-21T14:07:02.279Z,165
2017-02-21T14:08:13.320Z,170
2017-02-21T14:09:23.723Z,185
2017-02-21T14:10:34.115Z,175
2017-02-21T14:11:44.910Z,175
2017-02-21T14:12:55.691Z,170
2017-02-21T14:14:06.089Z,175
2017-02-21T14:15:16.093Z,185
2017-02-21T14:16:26.504Z,160
2017-02-21T14:17:37.314Z,155
2017-02-21T14:18:47.712Z,145
2017-02-21T14:19:57.741Z,145
2017-02-21T14:21:08.158Z,140
2017-02-21T14:22:18.191Z,150
2017-02-21T14:23:28.571Z,150
2017-02-21T14:24:39.361Z,140
2017-02-21T14:25:49.347Z,160
2017-02-21T14:27:00.143Z,155
2017-02-21T14:28:10.936Z,150
2017-02-21T14:29:21.332Z,155
2017-02-21T14:30:30.924Z,150
2017-02-21T14:31:41.796Z,150
2017-02-21T14:32:52.607Z,145
2017-02-21T14:34:03.411Z,150
2017-02-21T14:35:14.225Z,145
2017-02-21T14:36:24.653Z,145
2017-02-21T14:37:35.058Z,140
2017-02-21T14:38:45.846Z,135
2017-02-21T14:39:56.659Z,115
2017-02-21T14:41:07.440Z,105
2017-02-21T14:42:18.227Z,90
2017-02-21T14:43:29.015Z,80
2017-02-21T14:44:39.399Z,75
2017-02-21T14:45:49.804Z,70
2017-02-21T14:47:00.207Z,70
2017-02-21T14:48:11.020Z,70
2017-02-21T14:49:21.835Z,70
2017-02-21T14:50:32.218Z,70
2017-02-21T14:51:42.584Z,65
2017-02-21T14:52:53.377Z,65
2017-02-21T14:54:04.155Z,65
2017-02-21T14:55:14.552Z,65
2017-02-21T14:56:24.142Z,70
2017-02-21T14:57:34.939Z,75
2017-02-21T14:58:44.548Z,75
2017-02-21T14:59:54.932Z,85
2017-02-21T15:01:05.782Z,80
2017-02-21T15:02:16.560Z,80
2017-02-21T15:03:26.929Z,75
2017-02-21T15:04:37.745Z,75
2017-02-21T15:05:48.551Z,65
2017-02-21T15:06:58.613Z,70
2017-02-21T15:08:09.398Z,65
2017-02-21T15:09:20.207Z,70
2017-02-21T15:10:30.197Z,65
2017-02-21T15:11:40.634Z,95
2017-02-21T15:12:51.452Z,105
2017-02-21T15:14:01.444Z,100
2017-02-21T15:15:12.249Z,65
2017-02-21T15:16:22.227Z,75
2017-02-21T15:17:32.217Z,85
2017-02-21T15:18:42.625Z,105
2017-02-21T15:19:53.428Z,115
2017-02-21T15:21:03.870Z,110
2017-02-21T15:22:14.683Z,80
2017-02-21T15:23:25.088Z,70
2017-02-21T15:24:35.486Z,60
2017-02-21T15:25:45.093Z,55
2017-02-21T15:26:55.492Z,50
2017-02-21T15:28:05.496Z,50
2017-02-21T15:29:15.891Z,50
2017-02-21T15:30:26.702Z,45
2017-02-21T15:31:37.490Z,45
2017-02-21T15:32:47.876Z,45
2017-02-21T15:33:58.287Z,40
2017-02-21T15:35:09.095Z,40
2017-02-21T15:36:19.088Z,40
2017-02-21T15:37:29.492Z,40
2017-02-21T15:38:40.302Z,35
2017-02-21T15:39:50.681Z,35
2017-02-21T15:41:01.476Z,30
2017-02-21T15:42:12.269Z,30
2017-02-21T15:43:22.274Z,30
2017-02-21T15:44:33.078Z,30
2017-02-21T15:45:43.896Z,30
2017-02-21T15:46:53.915Z,30
2017-02-21T15:48:04.303Z,30
2017-02-21T15:49:14.719Z,30
2017-02-21T15:50:25.663Z,30
2017-02-21T15:51:36.045Z,25
2017-02-21T15:52:46.054Z,25
2017-02-21T15:53:56.857Z,25
2017-02-21T15:55:07.672Z,25
2017-02-21T15:56:18.493Z,25
2017-02-21T15:57:28.490Z,20
2017-02-21T15:58:39.294Z,20
2017-02-21T15:59:49.694Z,20
2017-02-21T16:01:00.091Z,20
2017-02-21T16:02:10.894Z,20
2017-02-21T16:03:21.705Z,20
2017-02-21T16:04:32.513Z,15
2017-02-21T16:05:42.121Z,15
2017-02-21T16:06:52.910Z,15
2017-02-21T16:08:02.916Z,15
2017-02-21T16:09:13.313Z,15
2017-02-21T16:10:23.719Z,10
2017-02-21T16:11:34.139Z,10
2017-02-21T16:12:44.557Z,10
2017-02-21T16:13:54.993Z,10
2017-02-21T16:15:05.400Z,10
2017-02-21T16:16:14.989Z,5
2017-02-21T16:17:25.825Z,5
2017-02-21T16:18:36.613Z,5
2017-02-21T16:19:47.017Z,5
2017-02-21T16:20:57.837Z,5
2017-02-21T16:22:08.685Z,5
2017-02-21T16:23:19.146Z,5
2017-02-21T16:24:29.941Z,5
2017-02-21T16:25:40.348Z,0
2017-02-21T16:26:50.731Z,0
2017-02-21T16:28:01.622Z,0
2017-02-21T16:29:11.993Z,0
2017-02-21T16:30:22.367Z,0
2017-02-21T16:31:32.413Z,0
2017-02-21T16:32:42.822Z,0
2017-02-21T16:33:52.840Z,0
2017-02-21T16:35:02.821Z,0
2017-02-21T16:36:13.184Z,0
2017-02-21T16:37:24.006Z,0
2017-02-21T16:38:34.393Z,0
2017-02-21T16:39:45.193Z,0
2017-02-21T16:40:55.600Z,0
2017-02-21T16:42:06.418Z,0
2017-02-21T16:43:16.815Z,0
2017-02-21T16:44:27.220Z,0
2017-02-21T16:45:38.021Z,0
2017-02-21T16:46:48.825Z,0
2017-02-21T16:47:59.607Z,0
2017-02-21T16:49:09.615Z,0
2017-02-21T16:50:20.403Z,0
2017-02-21T16:51:31.181Z,0
2017-02-21T16:52:41.961Z,0
2017-02-21T16:53:52.753Z,0
2017-02-21T16:55:03.538Z,0
2017-02-21T16:56:14.329Z,0
2017-02-21T16:57:24.331Z,0
2017-02-21T16:58:34.738Z,0
2017-02-21T16:59:45.388Z,0
2017-02-21T17:00:56.182Z,0
2017-02-21T17:02:06.950Z,0
2017-02-21T17:03:17.360Z,0
2017-02-21T17:04:28.150Z,0
2017-02-21T17:05:38.544Z,0
2017-02-21T17:06:49.326Z,0
2017-02-21T17:08:00.141Z,0
2017-02-21T17:09:10.927Z,0
2017-02-21T17:10:21.372Z,0
2017-02-21T17:11:31.750Z,0
2017-02-21T17:12:42.164Z,0
2017-02-21T17:13:52.188Z,0
2017-02-21T17:15:02.595Z,0
2017-02-21T17:16:13.393Z,0
2017-02-21T17:17:23.799Z,0
2017-02-21T17:18:33.837Z,0
2017-02-21T17:19:43.861Z,0
2017-02-21T17:20:54.661Z,0
2017-02-21T17:22:05.037Z,0
2017-02-21T17:23:15.477Z,0
2017-02-21T17:24:25.535Z,0
2017-02-21T17:25:36.022Z,0